Time;durP1;ratioP1;P1;durP2;ratioP2;P2;SDS_P1;SDS_P2;PMS_P1;PMS_P2;Temp;Humidity;BMP_temperature;BMP_pressure;BME280_temperature;BME280_humidity;BME280_pressure;Samples;Min_cycle;Max_cycle;Signal;HPM_P1;HPM_P2
2022/07/29 00:00:09;;;;;;;5.68;1.27;;;;;;;18.05;67.00;101897.00;4967752;28;20043;-69
2022/07/29 00:02:34;;;;;;;5.28;1.15;;;;;;;18.11;66.76;101897.66;4967787;28;20555;-70
2022/07/29 00:05:00;;;;;;;3.28;1.40;;;;;;;17.93;67.69;101905.59;4967697;28;20109;-70
2022/07/29 00:07:26;;;;;;;5.38;1.20;;;;;;;18.04;67.09;101905.09;4967017;28;20164;-69
2022/07/29 00:09:51;;;;;;;3.00;1.23;;;;;;;18.02;67.44;101897.16;4967435;28;20090;-70
2022/07/29 00:12:17;;;;;;;4.15;1.52;;;;;;;17.98;67.48;101900.06;4967040;28;20026;-70
2022/07/29 00:14:42;;;;;;;3.53;1.05;;;;;;;17.94;67.49;101896.66;4966701;28;20728;-69
2022/07/29 00:17:07;;;;;;;5.50;1.20;;;;;;;18.02;66.96;101890.97;4966908;28;20031;-70
2022/07/29 00:19:34;;;;;;;2.50;1.35;;;;;;;17.98;67.21;101892.94;4967735;28;20054;-70
2022/07/29 00:21:59;;;;;;;4.10;1.45;;;;;;;17.81;68.00;101888.41;4949516;28;20057;-70
2022/07/29 00:24:25;;;;;;;2.47;1.13;;;;;;;17.68;68.52;101890.78;4966766;28;20037;-68
2022/07/29 00:26:50;;;;;;;5.10;1.20;;;;;;;17.60;68.60;101885.81;4967343;28;20114;-69
2022/07/29 00:29:15;;;;;;;3.90;1.50;;;;;;;17.50;69.22;101884.53;4967092;28;20114;-69
2022/07/29 00:31:41;;;;;;;4.20;1.50;;;;;;;17.50;68.89;101884.53;4950197;28;20117;-69
2022/07/29 00:35:43;;;;;;;4.43;1.23;;;;;;;17.46;69.40;101881.13;4966772;28;20594;-69
2022/07/29 00:36:51;;;;;;;4.25;1.40;;;;;;;17.45;69.24;101879.41;4966081;28;20043;-70
2022/07/29 00:39:16;;;;;;;4.25;1.48;;;;;;;17.37;69.84;101882.41;4966360;28;20374;-69
2022/07/29 00:41:42;;;;;;;2.80;1.48;;;;;;;17.38;69.57;101876.19;4949992;28;20453;-68
2022/07/29 00:44:07;;;;;;;3.85;1.33;;;;;;;17.31;70.15;101880.06;4966819;28;20106;-66
2022/07/29 00:46:32;;;;;;;1.33;1.20;;;;;;;17.27;69.79;101870.47;4967216;28;20043;-70
2022/07/29 00:48:58;;;;;;;2.22;1.40;;;;;;;17.38;69.60;101873.50;4967105;28;20115;-69
2022/07/29 00:51:25;;;;;;;5.28;1.50;;;;;;;17.42;69.37;101872.44;4966676;28;20022;-68
2022/07/29 00:53:50;;;;;;;3.97;1.10;;;;;;;17.39;69.74;101869.91;4965114;28;20032;-69
2022/07/29 00:56:16;;;;;;;3.83;1.50;;;;;;;17.53;69.16;101873.72;4966695;28;20034;-69
2022/07/29 00:58:41;;;;;;;1.90;1.50;;;;;;;17.44;69.81;101872.34;4964797;28;20039;-72
2022/07/29 01:01:06;;;;;;;3.40;2.00;;;;;;;17.42;69.91;101868.88;4965265;28;20504;-70
2022/07/29 01:03:32;;;;;;;4.63;1.83;;;;;;;17.46;69.56;101865.13;4965556;28;20031;-71
2022/07/29 01:05:57;;;;;;;1.55;1.30;;;;;;;17.46;69.69;101866.97;4966252;28;20035;-70
2022/07/29 01:08:23;;;;;;;6.60;1.50;;;;;;;17.39;70.08;101867.25;4964794;28;20030;-71
2022/07/29 01:10:49;;;;;;;3.75;1.35;;;;;;;17.32;70.42;101864.94;4949159;28;20038;-70
2022/07/29 01:13:14;;;;;;;3.20;1.50;;;;;;;17.26;70.50;101866.06;4948972;28;20123;-70
2022/07/29 01:15:44;;;;;;;2.42;1.30;;;;;;;17.21;70.88;101858.28;4966406;28;20065;-69
2022/07/29 01:18:32;;;;;;;2.38;1.40;;;;;;;17.20;70.96;101861.03;4949341;28;20063;-70
2022/07/29 01:21:09;;;;;;;3.30;1.50;;;;;;;17.30;70.68;101859.66;4949152;28;20632;-71
2022/07/29 01:23:41;;;;;;;5.93;1.27;;;;;;;17.36;70.42;101856.72;4965321;28;20043;-70
2022/07/29 01:26:09;;;;;;;4.22;1.33;;;;;;;17.33;70.62;101851.53;4966384;28;20117;-71
2022/07/29 01:28:44;;;;;;;1.27;1.17;;;;;;;17.21;71.09;101857.41;4966504;28;20027;-69
2022/07/29 01:31:10;;;;;;;7.95;1.50;;;;;;;17.14;71.41;101863.06;4948470;28;20121;-69
2022/07/29 01:33:50;;;;;;;3.03;1.60;;;;;;;17.11;71.86;101860.53;4949168;28;20470;-69
2022/07/29 01:37:03;;;;;;;5.43;1.42;;;;;;;17.09;71.89;101854.41;4966283;28;20124;-70
2022/07/29 01:39:34;;;;;;;3.97;1.30;;;;;;;17.10;71.74;101853.44;4871529;29;20047;-69
2022/07/29 01:42:07;;;;;;;4.85;1.70;;;;;;;17.11;71.51;101857.00;4870853;29;20036;-69
2022/07/29 01:44:41;;;;;;;3.08;1.85;;;;;;;17.04;71.77;101848.41;4919084;28;20039;-70
2022/07/29 01:47:20;;;;;;;2.75;1.30;;;;;;;17.04;71.94;101851.06;4948566;28;20249;-69
2022/07/29 01:49:49;;;;;;;2.47;1.50;;;;;;;17.03;71.91;101851.97;4963761;28;20076;-70
2022/07/29 01:52:34;;;;;;;2.35;1.42;;;;;;;16.96;72.75;101854.06;4965111;28;20054;-70
2022/07/29 01:55:04;;;;;;;4.65;1.35;;;;;;;16.95;72.71;101851.47;4964856;28;20031;-70
2022/07/29 01:57:31;;;;;;;2.88;1.50;;;;;;;16.90;72.61;101849.88;4965674;28;20459;-71
2022/07/29 01:59:58;;;;;;;2.22;1.42;;;;;;;16.87;73.41;101849.13;4964680;28;20026;-70
2022/07/29 02:02:24;;;;;;;2.47;1.40;;;;;;;16.82;73.21;101843.19;4964011;28;20090;-70
2022/07/29 02:04:50;;;;;;;7.03;1.73;;;;;;;16.85;73.22;101838.56;4948527;28;20023;-70
2022/07/29 02:07:19;;;;;;;3.67;1.45;;;;;;;16.76;73.44;101831.84;4964028;28;20049;-69
2022/07/29 02:09:46;;;;;;;2.75;1.50;;;;;;;16.75;73.55;101839.91;4964787;28;20090;-69
2022/07/29 02:12:11;;;;;;;2.75;1.50;;;;;;;16.70;73.70;101836.59;4948283;28;20042;-69
2022/07/29 02:14:40;;;;;;;7.05;1.95;;;;;;;16.61;74.28;101836.06;4948665;28;20083;-70
2022/07/29 02:17:06;;;;;;;5.13;1.40;;;;;;;16.64;73.83;101835.91;4966070;28;20532;-70
2022/07/29 02:19:32;;;;;;;3.00;1.40;;;;;;;16.67;73.83;101829.59;4948218;28;20030;-70
2022/07/29 02:21:58;;;;;;;2.50;1.20;;;;;;;16.62;73.72;101824.47;4965562;28;20031;-69
2022/07/29 02:24:25;;;;;;;2.45;1.50;;;;;;;16.58;74.21;101833.53;4948022;28;20532;-69
2022/07/29 02:26:53;;;;;;;1.27;1.17;;;;;;;16.54;74.55;101826.63;4964906;28;20110;-69
2022/07/29 02:29:22;;;;;;;7.28;1.50;;;;;;;16.69;73.88;101833.06;4964702;28;20019;-69
2022/07/29 02:31:48;;;;;;;4.25;1.73;;;;;;;16.66;73.74;101826.09;4947508;28;20026;-69
2022/07/29 02:34:14;;;;;;;4.45;1.33;;;;;;;16.60;73.91;101826.34;4963027;28;20532;-69
2022/07/29 02:36:40;;;;;;;3.58;1.25;;;;;;;16.67;73.86;101827.81;4963677;28;20035;-68
2022/07/29 02:39:07;;;;;;;3.28;1.70;;;;;;;16.65;74.02;101834.97;4966715;28;20620;-72
2022/07/29 02:41:45;;;;;;;2.10;1.48;;;;;;;16.67;74.05;101830.47;4952307;28;20023;-69
2022/07/29 02:44:16;;;;;;;3.90;1.50;;;;;;;16.67;73.78;101834.91;4968996;28;20038;-72
2022/07/29 02:46:46;;;;;;;4.13;1.83;;;;;;;16.61;74.07;101822.75;4968346;28;20117;-71
2022/07/29 02:49:21;;;;;;;4.45;1.60;;;;;;;16.52;74.57;101829.34;4951649;28;20031;-70
2022/07/29 02:52:03;;;;;;;4.80;1.80;;;;;;;16.63;73.88;101828.00;4967484;28;20097;-69
2022/07/29 02:54:34;;;;;;;5.13;1.83;;;;;;;16.60;73.92;101828.13;4968956;28;20023;-68
2022/07/29 02:57:04;;;;;;;5.45;1.75;;;;;;;16.49;74.10;101826.81;4969043;28;20035;-69
2022/07/29 02:59:30;;;;;;;2.60;1.45;;;;;;;16.51;74.09;101818.75;4952118;28;20033;-69
2022/07/29 03:01:57;;;;;;;3.65;1.70;;;;;;;16.66;73.27;101817.22;4951753;28;20034;-70
2022/07/29 03:04:24;;;;;;;5.07;1.88;;;;;;;16.55;73.53;101823.88;4951477;28;20447;-69
2022/07/29 03:06:50;;;;;;;4.47;1.50;;;;;;;16.54;74.05;101821.28;4950518;28;20422;-70
2022/07/29 03:09:17;;;;;;;4.95;1.65;;;;;;;16.53;73.92;101822.22;4967054;28;20120;-70
2022/07/29 03:11:43;;;;;;;3.50;1.48;;;;;;;16.50;74.08;101814.38;4950474;28;20455;-69
2022/07/29 03:14:08;;;;;;;3.20;2.10;;;;;;;16.50;73.91;101814.38;4967783;28;20426;-70
2022/07/29 03:16:36;;;;;;;9.10;1.70;;;;;;;16.42;74.18;101814.72;4951404;28;20027;-69
2022/07/29 03:19:02;;;;;;;3.08;1.67;;;;;;;16.43;74.16;101819.09;4951084;28;20389;-70
2022/07/29 03:21:27;;;;;;;4.40;2.30;;;;;;;16.40;74.47;101817.44;4967875;28;20030;-70
2022/07/29 03:23:53;;;;;;;8.27;2.00;;;;;;;16.46;73.94;101815.47;4951392;28;20767;-72
2022/07/29 03:26:18;;;;;;;2.53;1.80;;;;;;;16.40;74.07;101809.47;4968359;28;20023;-72
2022/07/29 03:28:44;;;;;;;3.70;1.90;;;;;;;16.39;74.19;101810.41;4951263;28;20433;-68
2022/07/29 03:31:09;;;;;;;7.00;2.08;;;;;;;16.36;74.73;101810.53;4965071;28;20670;-69
2022/07/29 03:33:34;;;;;;;4.15;1.90;;;;;;;16.29;74.67;101803.75;4967317;28;20054;-70
2022/07/29 03:36:02;;;;;;;3.83;2.08;;;;;;;16.31;74.43;101804.53;4966168;28;20111;-70
2022/07/29 03:38:29;;;;;;;3.20;1.95;;;;;;;16.33;74.19;101802.69;4966800;28;20045;-69
2022/07/29 03:40:57;;;;;;;4.05;2.08;;;;;;;16.30;74.35;101810.78;4949589;28;20081;-70
2022/07/29 03:43:24;;;;;;;2.92;2.05;;;;;;;16.28;74.41;101804.66;4966696;28;20042;-69
2022/07/29 03:45:53;;;;;;;5.82;2.10;;;;;;;16.22;74.74;101812.91;4950857;28;20073;-68
2022/07/29 03:48:20;;;;;;;3.92;2.03;;;;;;;16.19;74.85;101810.38;4950002;28;20027;-70
2022/07/29 03:50:46;;;;;;;6.18;2.00;;;;;;;16.26;74.56;101809.19;4948057;28;20101;-70
2022/07/29 03:53:12;;;;;;;4.50;2.30;;;;;;;16.21;74.80;101806.72;4949436;28;20465;-70
2022/07/29 03:55:44;;;;;;;5.47;2.45;;;;;;;16.18;74.94;101806.84;4966753;28;20039;-65
2022/07/29 03:58:12;;;;;;;4.45;2.22;;;;;;;16.13;75.09;101804.38;4949431;28;20031;-69
2022/07/29 04:00:38;;;;;;;4.07;2.10;;;;;;;16.19;74.44;101808.56;4947298;28;20393;-69
2022/07/29 04:03:04;;;;;;;3.92;2.00;;;;;;;16.25;74.27;101810.09;4966649;28;20031;-69
2022/07/29 04:05:29;;;;;;;4.63;2.53;;;;;;;16.24;74.21;101806.59;4933822;28;20019;-66
2022/07/29 04:07:55;;;;;;;6.22;2.30;;;;;;;16.24;74.17;101805.72;4967180;28;20026;-67
2022/07/29 04:10:20;;;;;;;8.38;2.72;;;;;;;16.30;73.75;101810.78;4965120;28;20043;-67
2022/07/29 04:12:45;;;;;;;4.05;2.38;;;;;;;16.38;73.71;101811.31;4965835;28;20166;-67
2022/07/29 04:15:11;;;;;;;3.78;2.40;;;;;;;16.36;73.62;101815.84;4966384;28;20532;-66
2022/07/29 04:17:36;;;;;;;6.22;2.58;;;;;;;16.34;74.05;101812.38;4964870;28;20367;-66
2022/07/29 04:20:02;;;;;;;3.30;2.30;;;;;;;16.24;74.83;101814.56;4967475;28;20053;-66
2022/07/29 04:22:28;;;;;;;5.85;2.15;;;;;;;16.28;74.67;101812.63;4965977;28;20049;-67
2022/07/29 04:24:53;;;;;;;5.60;1.77;;;;;;;16.23;74.28;101811.97;4966663;28;20046;-66
2022/07/29 04:27:18;;;;;;;7.18;2.50;;;;;;;16.17;74.52;101813.09;4966942;28;20053;-65
2022/07/29 04:29:44;;;;;;;3.55;2.30;;;;;;;16.22;74.24;101811.09;4967135;28;20450;-66
2022/07/29 04:32:09;;;;;;;5.72;2.53;;;;;;;16.23;74.63;101806.66;4966367;28;20092;-66
2022/07/29 04:34:34;;;;;;;5.22;2.10;;;;;;;16.22;74.24;101808.44;4966952;28;20061;-66
2022/07/29 04:37:00;;;;;;;3.63;2.20;;;;;;;16.22;74.39;101808.44;4948542;28;20275;-66
2022/07/29 04:39:25;;;;;;;6.35;2.47;;;;;;;16.15;74.84;101805.19;4966094;28;20055;-67
2022/07/29 04:41:51;;;;;;;6.05;2.30;;;;;;;16.15;74.95;101812.28;4966012;28;20019;-66
2022/07/29 04:44:17;;;;;;;5.90;2.03;;;;;;;16.12;75.04;101807.09;4966367;28;20085;-67
2022/07/29 04:46:42;;;;;;;7.47;2.55;;;;;;;16.11;74.83;101808.91;4966414;28;20501;-66
2022/07/29 04:49:07;;;;;;;4.63;2.05;;;;;;;16.16;74.42;101811.34;4966089;28;20477;-66
2022/07/29 04:51:34;;;;;;;6.90;2.58;;;;;;;16.22;74.35;101810.25;4964989;28;20703;-67
2022/07/29 04:53:59;;;;;;;8.40;2.10;;;;;;;16.24;74.22;101811.91;4965835;28;20061;-66
2022/07/29 04:56:24;;;;;;;5.63;2.00;;;;;;;16.23;74.24;101807.53;4966517;28;20062;-66
2022/07/29 04:58:50;;;;;;;3.13;2.10;;;;;;;16.32;73.68;101813.38;4966768;28;20113;-67
2022/07/29 05:01:15;;;;;;;6.97;1.90;;;;;;;16.27;74.25;101802.94;4964419;28;20397;-66
2022/07/29 05:03:41;;;;;;;4.65;2.00;;;;;;;16.31;74.02;101804.53;4966264;28;20050;-66
2022/07/29 05:06:06;;;;;;;2.92;2.00;;;;;;;16.32;73.62;101806.28;4963122;28;20023;-65
2022/07/29 05:08:31;;;;;;;2.95;2.30;;;;;;;16.34;73.51;101806.22;4965717;28;20536;-64
2022/07/29 05:10:57;;;;;;;4.88;2.05;;;;;;;16.37;73.19;101806.94;4964587;28;20460;-66
2022/07/29 05:13:22;;;;;;;7.72;1.85;;;;;;;16.52;72.48;101802.72;4965626;28;20047;-65
2022/07/29 05:15:47;;;;;;;4.47;2.10;;;;;;;16.29;73.24;101801.09;4965940;28;20078;-65
2022/07/29 05:18:13;;;;;;;3.85;2.30;;;;;;;16.41;73.17;101805.84;4965603;28;20467;-66
2022/07/29 05:20:39;;;;;;;5.22;1.90;;;;;;;16.48;72.87;101803.81;4965828;28;20018;-66
2022/07/29 05:23:04;;;;;;;4.47;1.98;;;;;;;16.40;72.95;101806.78;4966289;28;20030;-65
2022/07/29 05:25:30;;;;;;;3.28;2.13;;;;;;;16.41;72.82;101811.16;4965452;28;20037;-65
2022/07/29 05:27:55;;;;;;;5.68;2.25;;;;;;;16.50;72.50;101814.38;4966208;28;20046;-66
2022/07/29 05:30:21;;;;;;;6.82;2.00;;;;;;;16.58;72.58;101817.56;4915887;29;20027;-66
2022/07/29 05:32:47;;;;;;;5.05;2.28;;;;;;;16.63;71.92;101820.03;4945942;29;20027;-66
2022/07/29 05:35:13;;;;;;;8.65;2.35;;;;;;;16.53;72.50;101819.56;4945169;29;20122;-66
2022/07/29 05:37:39;;;;;;;6.40;1.85;;;;;;;16.57;72.60;101820.28;4945798;29;20055;-66
2022/07/29 05:40:05;;;;;;;5.28;1.85;;;;;;;16.85;71.47;101822.59;4946571;29;20565;-65
2022/07/29 05:42:30;;;;;;;4.20;1.98;;;;;;;16.95;71.36;101825.72;4929343;29;20015;-65
2022/07/29 05:44:56;;;;;;;3.08;1.98;;;;;;;17.17;70.49;101828.28;4956757;28;20027;-67
2022/07/29 05:47:21;;;;;;;3.78;1.90;;;;;;;17.24;70.56;101827.97;4965100;28;20050;-67
2022/07/29 05:49:47;;;;;;;3.92;1.60;;;;;;;17.45;69.96;101830.59;4965992;28;20019;-66
2022/07/29 05:52:15;;;;;;;4.40;1.90;;;;;;;17.50;69.31;101833.91;4964687;28;20117;-66
2022/07/29 05:54:41;;;;;;;6.03;2.13;;;;;;;17.71;69.49;101820.47;4963569;28;20055;-70
2022/07/29 05:57:06;;;;;;;8.32;1.83;;;;;;;17.81;69.38;101829.75;4965365;28;20102;-72
2022/07/29 05:59:36;;;;;;;6.05;2.20;;;;;;;17.75;70.04;101835.38;4963775;28;20106;-71
2022/07/29 06:02:01;;;;;;;4.03;1.67;;;;;;;17.77;69.58;101833.50;4965096;28;20042;-72
2022/07/29 06:04:26;;;;;;;4.20;2.05;;;;;;;17.99;68.55;101835.09;4964202;28;20265;-71
2022/07/29 06:06:52;;;;;;;6.15;1.80;;;;;;;17.97;68.43;101839.66;4955562;28;20114;-72
2022/07/29 06:09:17;;;;;;;3.50;1.58;;;;;;;18.00;68.03;101840.38;4964400;28;20441;-72
2022/07/29 06:11:42;;;;;;;2.00;1.63;;;;;;;18.04;67.75;101836.63;4965636;28;20026;-72
2022/07/29 06:14:08;;;;;;;7.18;1.85;;;;;;;18.00;68.21;101828.84;4967899;28;20026;-73
2022/07/29 06:16:33;;;;;;;5.45;1.88;;;;;;;18.15;67.65;101828.09;4969485;28;20031;-68
2022/07/29 06:18:58;;;;;;;4.63;1.77;;;;;;;18.32;67.50;101826.38;4968390;28;20025;-73
2022/07/29 06:21:24;;;;;;;6.05;2.20;;;;;;;18.37;66.78;101827.03;4968496;28;20026;-68
2022/07/29 06:23:49;;;;;;;6.10;1.70;;;;;;;18.56;66.49;101834.06;4968212;28;20062;-71
2022/07/29 06:26:14;;;;;;;6.28;1.80;;;;;;;18.62;66.92;101830.22;4968004;28;20110;-73
2022/07/29 06:28:40;;;;;;;3.80;1.90;;;;;;;18.61;66.04;101829.38;4969183;28;20110;-72
2022/07/29 06:31:05;;;;;;;2.35;1.70;;;;;;;18.74;66.03;101832.25;4969263;28;20106;-71
2022/07/29 06:33:31;;;;;;;5.45;2.03;;;;;;;18.81;65.25;101838.09;4968481;28;20027;-70
2022/07/29 06:35:56;;;;;;;3.28;1.60;;;;;;;18.86;65.14;101846.75;4957537;28;20400;-72
2022/07/29 06:38:22;;;;;;;4.38;2.10;;;;;;;18.67;65.63;101842.38;4969060;28;20038;-72
2022/07/29 06:41:07;;;;;;;2.67;1.50;;;;;;;18.66;65.02;101843.31;4971422;28;20034;-70
2022/07/29 06:46:52;;;;;;;5.10;1.83;;;;;;;19.10;64.82;101845.53;4959141;28;20414;-71
2022/07/29 06:49:18;;;;;;;4.75;1.90;;;;;;;18.94;64.47;101851.69;4968430;28;20023;-71
2022/07/29 06:51:43;;;;;;;2.97;1.90;;;;;;;19.04;64.89;101852.03;4967097;28;20069;-71
2022/07/29 06:54:09;;;;;;;4.22;1.85;;;;;;;19.08;65.59;101848.28;4967696;28;20035;-70
2022/07/29 06:56:37;;;;;;;7.22;1.88;;;;;;;19.15;64.61;101852.34;4967761;28;20078;-70
2022/07/29 06:59:03;;;;;;;5.60;1.88;;;;;;;19.34;63.55;101848.69;4970977;28;20026;-70
2022/07/29 07:01:29;;;;;;;12.05;1.98;;;;;;;19.27;64.68;101852.63;4968649;28;20123;-70
2022/07/29 07:03:54;;;;;;;7.80;1.65;;;;;;;19.35;64.97;101855.72;4949620;28;20113;-71
2022/07/29 07:06:19;;;;;;;3.00;1.60;;;;;;;19.45;64.47;101856.09;4967794;28;20015;-71
2022/07/29 07:08:45;;;;;;;4.38;1.60;;;;;;;19.50;64.20;101866.53;4967668;28;20073;-72
2022/07/29 07:11:11;;;;;;;6.90;2.08;;;;;;;19.39;64.50;101876.00;4968108;28;20039;-74
2022/07/29 07:13:36;;;;;;;5.47;2.00;;;;;;;19.48;65.21;101871.09;4968909;28;20029;-72
2022/07/29 07:16:02;;;;;;;5.65;2.05;;;;;;;19.75;63.79;101874.00;4968458;28;20042;-73
2022/07/29 07:18:27;;;;;;;5.88;1.75;;;;;;;19.97;62.91;101871.94;4968673;28;20026;-72
2022/07/29 07:20:53;;;;;;;5.25;1.70;;;;;;;20.07;61.96;101878.50;4967507;28;20046;-73
2022/07/29 07:23:18;;;;;;;4.93;2.03;;;;;;;19.97;61.48;101877.28;4968701;28;20114;-75
2022/07/29 07:25:43;;;;;;;5.05;1.75;;;;;;;19.87;63.64;101880.47;4968255;28;20857;-72
2022/07/29 07:28:09;;;;;;;3.90;1.90;;;;;;;19.90;63.04;101872.28;4967518;28;20409;-73
2022/07/29 07:30:34;;;;;;;8.57;1.80;;;;;;;20.01;63.30;101863.69;4968468;28;20101;-72
2022/07/29 07:33:00;;;;;;;5.15;1.73;;;;;;;20.31;63.31;101872.66;4967819;28;20043;-75
2022/07/29 07:35:27;;;;;;;4.95;1.88;;;;;;;20.45;62.66;101867.38;4967204;28;20025;-68
2022/07/29 07:37:53;;;;;;;4.00;1.70;;;;;;;20.73;60.68;101866.63;4967875;28;20102;-73
2022/07/29 07:40:18;;;;;;;4.93;1.92;;;;;;;20.49;63.49;101884.09;4967662;28;20565;-68
2022/07/29 07:42:43;;;;;;;3.78;2.10;;;;;;;20.51;62.60;101884.00;4967888;28;20046;-71
2022/07/29 07:45:09;;;;;;;7.13;2.20;;;;;;;20.42;62.05;101870.25;4966820;28;20029;-70
2022/07/29 07:47:38;;;;;;;4.70;1.88;;;;;;;20.48;61.19;101881.50;4967570;28;20045;-71
2022/07/29 07:50:07;;;;;;;5.53;2.00;;;;;;;20.33;61.20;101873.44;4968581;28;20035;-68
2022/07/29 07:52:32;;;;;;;6.80;2.00;;;;;;;20.36;62.68;101880.44;4966067;28;20478;-67
2022/07/29 07:54:58;;;;;;;5.68;2.17;;;;;;;20.45;61.58;101874.53;4967272;28;20029;-68
2022/07/29 07:57:23;;;;;;;5.28;2.20;;;;;;;20.57;60.68;101881.84;4966898;28;20026;-68
2022/07/29 07:59:49;;;;;;;7.88;2.00;;;;;;;20.56;61.33;101879.25;4968036;28;20042;-66
2022/07/29 08:02:14;;;;;;;6.57;2.28;;;;;;;20.68;60.96;101869.63;4966843;28;20042;-67
2022/07/29 08:04:40;;;;;;;4.10;2.05;;;;;;;20.65;61.11;101878.69;4967513;28;20039;-68
2022/07/29 08:07:07;;;;;;;8.02;2.38;;;;;;;20.81;60.66;101862.56;4966334;28;20034;-67
2022/07/29 08:09:34;;;;;;;4.22;2.15;;;;;;;20.75;61.50;101867.41;4966196;28;20109;-64
2022/07/29 08:11:59;;;;;;;9.85;2.13;;;;;;;20.82;60.83;101868.75;4966721;28;20034;-67
2022/07/29 08:14:25;;;;;;;3.97;1.88;;;;;;;20.84;61.16;101873.06;4949837;28;20019;-67
2022/07/29 08:16:51;;;;;;;4.38;2.05;;;;;;;20.66;60.35;101874.19;4967359;28;20382;-69
2022/07/29 08:19:16;;;;;;;3.47;2.10;;;;;;;20.86;59.73;101866.78;4967664;28;20049;-72
2022/07/29 08:21:41;;;;;;;5.10;2.15;;;;;;;20.95;60.89;101860.88;4965443;28;20134;-72
2022/07/29 08:26:51;;;;;;;4.80;2.10;;;;;;;21.03;58.42;101865.72;4967889;28;20548;-66
2022/07/29 08:29:16;;;;;;;8.88;2.40;;;;;;;20.85;58.93;101863.22;4966399;28;20026;-68
2022/07/29 08:31:42;;;;;;;4.30;2.00;;;;;;;21.01;58.54;101865.00;4967019;28;20083;-66
2022/07/29 08:34:08;;;;;;;4.50;2.00;;;;;;;20.81;59.39;101867.03;4949363;28;20035;-62
2022/07/29 08:36:33;;;;;;;2.97;1.85;;;;;;;20.90;59.98;101873.69;4965851;28;20035;-66
2022/07/29 08:39:00;;;;;;;6.47;2.03;;;;;;;21.03;60.07;101877.31;4966906;28;20069;-70
2022/07/29 08:41:26;;;;;;;5.05;2.08;;;;;;;21.51;58.33;101869.91;4966487;28;20038;-71
2022/07/29 08:43:52;;;;;;;7.68;2.30;;;;;;;21.40;58.95;101876.81;4967265;28;20050;-67
2022/07/29 08:46:18;;;;;;;4.40;2.05;;;;;;;21.62;57.42;101879.94;4966701;28;20094;-66
2022/07/29 08:48:44;;;;;;;4.25;1.88;;;;;;;21.95;57.31;101868.00;4966964;28;20023;-64
2022/07/29 08:51:13;;;;;;;6.28;2.15;;;;;;;21.98;57.23;101875.84;4965844;28;20178;-65
2022/07/29 08:53:41;;;;;;;4.82;1.90;;;;;;;21.91;56.88;101872.69;4966212;28;20141;-65
2022/07/29 08:56:06;;;;;;;3.58;2.13;;;;;;;21.86;56.56;101882.88;4966865;28;20044;-69
2022/07/29 08:58:33;;;;;;;6.35;2.10;;;;;;;22.00;56.22;101878.44;4948378;28;20035;-65
2022/07/29 09:01:01;;;;;;;7.38;2.50;;;;;;;22.00;57.29;101886.47;4965579;28;20031;-67
2022/07/29 09:03:31;;;;;;;8.50;2.20;;;;;;;22.21;56.34;101873.44;4966463;28;20030;-66
2022/07/29 09:05:57;;;;;;;7.13;2.20;;;;;;;21.96;57.69;101872.41;4966286;28;20102;-67
2022/07/29 09:08:23;;;;;;;4.82;2.20;;;;;;;21.99;57.20;101869.50;4966641;28;20066;-65
2022/07/29 09:10:49;;;;;;;3.95;1.95;;;;;;;22.43;56.34;101864.78;4949225;28;20078;-67
2022/07/29 09:13:14;;;;;;;9.15;2.30;;;;;;;22.28;57.03;101864.03;4966488;28;20026;-68
2022/07/29 09:15:39;;;;;;;9.32;2.75;;;;;;;22.40;55.96;101869.50;4965657;28;20444;-67
2022/07/29 09:18:05;;;;;;;15.45;2.67;;;;;;;22.19;56.43;101868.16;4966344;28;20019;-67
2022/07/29 09:23:39;;;;;;;5.15;2.28;;;;;;;22.40;54.98;101864.16;4960844;28;20038;-63
2022/07/29 09:26:05;;;;;;;30.80;4.22;;;;;;;22.23;56.91;101860.78;4976682;28;20648;-65
2022/07/29 09:28:31;;;;;;;4.60;2.05;;;;;;;22.31;56.47;101862.94;4968841;28;20027;-66
2022/07/29 09:31:02;;;;;;;3.88;1.88;;;;;;;22.17;57.57;101866.56;4973143;28;20284;-65
2022/07/29 09:33:40;;;;;;;5.80;2.25;;;;;;;22.22;57.72;101864.44;4963262;28;20233;-65
2022/07/29 09:36:07;;;;;;;7.80;2.23;;;;;;;22.35;56.81;101853.72;4964909;28;20093;-64
2022/07/29 09:38:33;;;;;;;5.07;2.28;;;;;;;22.09;57.89;101862.56;4965231;28;20576;-66
2022/07/29 09:41:00;;;;;;;2.60;2.20;;;;;;;22.04;57.76;101861.16;4962680;28;20031;-66
2022/07/29 09:43:26;;;;;;;6.10;2.17;;;;;;;21.91;57.88;101866.50;4964229;28;20108;-65
2022/07/29 09:45:51;;;;;;;8.20;2.67;;;;;;;21.91;57.67;101870.00;4948678;28;20466;-65
2022/07/29 09:48:19;;;;;;;5.22;2.25;;;;;;;22.01;58.06;101872.09;4967814;28;20023;-67
2022/07/29 09:50:46;;;;;;;5.77;2.10;;;;;;;21.84;58.92;101872.25;4968582;28;20030;-65
2022/07/29 09:53:12;;;;;;;3.83;2.13;;;;;;;21.90;58.68;101872.81;4969480;28;20019;-66
2022/07/29 09:55:50;;;;;;;3.85;2.20;;;;;;;22.16;57.90;101860.34;4969653;28;20030;-66
2022/07/29 09:58:17;;;;;;;3.13;2.00;;;;;;;22.39;57.54;101863.28;4950797;28;20049;-66
2022/07/29 10:00:43;;;;;;;5.57;1.90;;;;;;;22.76;54.86;101859.03;4968841;28;20470;-65
2022/07/29 10:03:08;;;;;;;10.40;2.25;;;;;;;22.70;55.54;101863.88;4969249;28;20027;-66
2022/07/29 10:05:34;;;;;;;7.55;1.80;;;;;;;22.56;54.46;101866.63;4968780;28;20042;-66
2022/07/29 10:07:59;;;;;;;4.00;2.20;;;;;;;22.44;55.54;101865.66;4969045;28;20058;-65
2022/07/29 10:10:29;;;;;;;4.50;2.38;;;;;;;22.50;55.48;101867.03;4968839;28;20051;-64
2022/07/29 10:13:00;;;;;;;4.60;1.88;;;;;;;22.72;53.57;101858.38;4968889;28;20027;-68
2022/07/29 10:15:31;;;;;;;6.53;2.03;;;;;;;23.02;54.35;101861.72;4969443;28;20090;-66
2022/07/29 10:17:58;;;;;;;6.10;1.83;;;;;;;23.26;53.73;101852.88;4968498;28;20034;-66
2022/07/29 10:20:25;;;;;;;4.85;1.75;;;;;;;23.26;52.96;101855.56;4965639;28;20038;-64
2022/07/29 10:22:52;;;;;;;8.73;2.10;;;;;;;23.19;52.46;101860.50;4968564;28;20111;-66
2022/07/29 10:25:18;;;;;;;5.25;1.60;;;;;;;23.51;51.47;101856.50;4967223;28;20035;-65
2022/07/29 10:27:44;;;;;;;9.98;2.25;;;;;;;23.63;51.34;101860.94;4968890;28;20555;-67
2022/07/29 10:30:11;;;;;;;5.68;1.95;;;;;;;23.62;51.87;101848.47;4968629;28;20117;-64
2022/07/29 10:33:01;;;;;;;8.10;1.92;;;;;;;23.88;51.72;101859.13;4969436;28;20027;-65
2022/07/29 10:35:38;;;;;;;4.82;1.70;;;;;;;23.91;51.85;101868.81;4966346;28;20169;-64
2022/07/29 10:38:28;;;;;;;3.10;1.80;;;;;;;23.87;52.90;101860.09;4966970;28;20027;-65
2022/07/29 10:41:28;;;;;;;5.57;1.98;;;;;;;24.00;52.07;101856.47;4968002;28;20054;-65
2022/07/29 10:43:57;;;;;;;4.15;1.92;;;;;;;24.29;51.70;101850.75;4966254;28;20365;-65
2022/07/29 10:46:22;;;;;;;4.90;2.05;;;;;;;24.43;48.80;101855.06;4951191;28;20027;-64
2022/07/29 10:49:05;;;;;;;5.75;2.17;;;;;;;24.25;49.40;101854.63;4950827;28;20049;-65
2022/07/29 10:51:49;;;;;;;4.82;2.13;;;;;;;24.44;48.17;101852.25;4966965;28;20035;-65
2022/07/29 10:54:15;;;;;;;4.70;1.98;;;;;;;24.61;48.24;101845.56;4968806;28;20037;-63
2022/07/29 10:56:41;;;;;;;8.85;1.80;;;;;;;24.62;48.74;101851.78;4967869;28;20030;-65
2022/07/29 10:59:19;;;;;;;8.10;2.05;;;;;;;24.82;46.34;101838.56;4969074;28;20473;-65
2022/07/29 11:01:44;;;;;;;3.47;1.60;;;;;;;25.01;45.26;101838.00;4969307;28;20043;-66
2022/07/29 11:04:10;;;;;;;7.72;1.70;;;;;;;24.89;45.34;101842.53;4968060;28;20110;-66
2022/07/29 11:07:01;;;;;;;5.80;1.67;;;;;;;24.77;46.33;101846.19;4967551;28;20038;-67
2022/07/29 11:09:27;;;;;;;4.25;1.45;;;;;;;24.82;45.31;101842.16;4947671;29;20058;-67
2022/07/29 11:11:53;;;;;;;4.63;1.73;;;;;;;25.14;45.19;101839.72;4948481;29;20027;-67
2022/07/29 11:14:54;;;;;;;7.30;1.80;;;;;;;25.05;44.94;101841.31;4948789;29;20105;-68
2022/07/29 11:17:19;;;;;;;6.30;1.50;;;;;;;24.97;45.77;101833.84;4949203;29;20046;-66
2022/07/29 11:19:45;;;;;;;8.07;1.90;;;;;;;24.99;45.52;101829.19;4931446;29;20027;-65
2022/07/29 11:22:11;;;;;;;6.88;1.98;;;;;;;25.05;45.16;101830.53;4947978;28;20501;-66
2022/07/29 11:24:38;;;;;;;5.38;1.60;;;;;;;25.46;44.80;101826.28;4951122;28;20047;-67
2022/07/29 11:27:12;;;;;;;4.40;1.50;;;;;;;25.69;43.79;101826.25;4968518;28;20042;-67
2022/07/29 11:29:51;;;;;;;4.32;1.75;;;;;;;25.43;44.07;101831.94;4968205;28;20442;-66
2022/07/29 11:32:19;;;;;;;5.43;1.88;;;;;;;25.67;42.69;101830.91;4966964;28;20034;-65
2022/07/29 11:34:45;;;;;;;6.95;1.80;;;;;;;25.87;43.61;101836.50;4967580;28;20019;-65